sensor_id;sensor_type;location;lat;lon;timestamp;temperature;humidity
20712;DHT22;10517;50.742;4.224;2023-08-07T00:00:06;12.00;99.90
20712;DHT22;10517;50.742;4.224;2023-08-07T00:02:35;12.00;99.90
20712;DHT22;10517;50.742;4.224;2023-08-07T00:05:01;12.00;99.90
20712;DHT22;10517;50.742;4.224;2023-08-07T00:07:27;12.00;99.90
20712;DHT22;10517;50.742;4.224;2023-08-07T00:09:53;12.00;99.90
20712;DHT22;10517;50.742;4.224;2023-08-07T00:12:18;12.00;99.90
20712;DHT22;10517;50.742;4.224;2023-08-07T00:14:46;12.00;99.90
20712;DHT22;10517;50.742;4.224;2023-08-07T00:17:12;12.00;99.90
20712;DHT22;10517;50.742;4.224;2023-08-07T00:19:38;12.00;99.90
20712;DHT22;10517;50.742;4.224;2023-08-07T00:22:04;12.00;99.90
20712;DHT22;10517;50.742;4.224;2023-08-07T00:24:30;12.00;99.90
20712;DHT22;10517;50.742;4.224;2023-08-07T00:26:56;12.00;99.90
20712;DHT22;10517;50.742;4.224;2023-08-07T00:29:21;11.90;99.90
20712;DHT22;10517;50.742;4.224;2023-08-07T00:31:47;12.00;99.90
20712;DHT22;10517;50.742;4.224;2023-08-07T00:34:13;11.90;99.90
20712;DHT22;10517;50.742;4.224;2023-08-07T00:36:39;11.80;99.90
20712;DHT22;10517;50.742;4.224;2023-08-07T00:39:04;11.80;99.90
20712;DHT22;10517;50.742;4.224;2023-08-07T00:41:30;11.70;99.90
20712;DHT22;10517;50.742;4.224;2023-08-07T00:43:56;11.60;99.90
20712;DHT22;10517;50.742;4.224;2023-08-07T00:46:22;11.60;99.90
20712;DHT22;10517;50.742;4.224;2023-08-07T00:48:48;11.60;99.90
20712;DHT22;10517;50.742;4.224;2023-08-07T00:51:14;11.70;99.90
20712;DHT22;10517;50.742;4.224;2023-08-07T00:53:40;11.70;99.90
20712;DHT22;10517;50.742;4.224;2023-08-07T00:56:07;11.70;99.90
20712;DHT22;10517;50.742;4.224;2023-08-07T00:58:33;11.60;99.90
20712;DHT22;10517;50.742;4.224;2023-08-07T01:00:59;11.70;99.90
20712;DHT22;10517;50.742;4.224;2023-08-07T01:03:25;11.60;99.90
20712;DHT22;10517;50.742;4.224;2023-08-07T01:05:51;11.60;99.90
20712;DHT22;10517;50.742;4.224;2023-08-07T01:08:17;11.60;99.90
20712;DHT22;10517;50.742;4.224;2023-08-07T01:17:30;11.50;99.90
20712;DHT22;10517;50.742;4.224;2023-08-07T01:19:36;11.50;99.90
20712;DHT22;10517;50.742;4.224;2023-08-07T01:22:16;11.50;99.90
20712;DHT22;10517;50.742;4.224;2023-08-07T01:24:44;11.50;99.90
20712;DHT22;10517;50.742;4.224;2023-08-07T01:32:43;11.50;99.90
20712;DHT22;10517;50.742;4.224;2023-08-07T01:35:12;11.50;99.90
20712;DHT22;10517;50.742;4.224;2023-08-07T01:37:41;11.50;99.90
20712;DHT22;10517;50.742;4.224;2023-08-07T01:40:09;11.50;99.90
20712;DHT22;10517;50.742;4.224;2023-08-07T01:42:37;11.50;99.90
20712;DHT22;10517;50.742;4.224;2023-08-07T01:45:04;11.40;99.90
20712;DHT22;10517;50.742;4.224;2023-08-07T01:47:30;11.40;99.90
20712;DHT22;10517;50.742;4.224;2023-08-07T01:49:56;11.40;99.90
20712;DHT22;10517;50.742;4.224;2023-08-07T01:52:22;11.40;99.90
20712;DHT22;10517;50.742;4.224;2023-08-07T01:54:48;11.40;99.90
20712;DHT22;10517;50.742;4.224;2023-08-07T01:57:14;11.40;99.90
20712;DHT22;10517;50.742;4.224;2023-08-07T01:59:39;11.40;99.90
20712;DHT22;10517;50.742;4.224;2023-08-07T02:02:05;11.30;99.90
20712;DHT22;10517;50.742;4.224;2023-08-07T02:04:31;11.30;99.90
20712;DHT22;10517;50.742;4.224;2023-08-07T02:06:57;11.30;99.90
20712;DHT22;10517;50.742;4.224;2023-08-07T02:09:23;11.20;99.90
20712;DHT22;10517;50.742;4.224;2023-08-07T02:11:48;11.10;99.90
20712;DHT22;10517;50.742;4.224;2023-08-07T02:14:14;11.10;99.90
20712;DHT22;10517;50.742;4.224;2023-08-07T02:16:40;11.00;99.90
20712;DHT22;10517;50.742;4.224;2023-08-07T02:19:06;11.00;99.90
20712;DHT22;10517;50.742;4.224;2023-08-07T02:21:32;11.00;99.90
20712;DHT22;10517;50.742;4.224;2023-08-07T02:23:58;10.90;99.90
20712;DHT22;10517;50.742;4.224;2023-08-07T02:26:23;10.90;99.90
20712;DHT22;10517;50.742;4.224;2023-08-07T02:28:49;10.80;99.90
20712;DHT22;10517;50.742;4.224;2023-08-07T02:31:15;10.80;99.90
20712;DHT22;10517;50.742;4.224;2023-08-07T02:33:41;10.80;99.90
20712;DHT22;10517;50.742;4.224;2023-08-07T02:36:07;10.70;99.90
20712;DHT22;10517;50.742;4.224;2023-08-07T02:38:33;10.70;99.90
20712;DHT22;10517;50.742;4.224;2023-08-07T02:40:59;10.70;99.90
20712;DHT22;10517;50.742;4.224;2023-08-07T02:43:25;10.70;99.90
20712;DHT22;10517;50.742;4.224;2023-08-07T02:45:52;10.70;99.90
20712;DHT22;10517;50.742;4.224;2023-08-07T02:48:18;10.80;99.90
20712;DHT22;10517;50.742;4.224;2023-08-07T02:50:44;10.80;99.90
20712;DHT22;10517;50.742;4.224;2023-08-07T02:53:11;10.80;99.90
20712;DHT22;10517;50.742;4.224;2023-08-07T02:55:37;10.70;99.90
20712;DHT22;10517;50.742;4.224;2023-08-07T02:58:03;10.70;99.90
20712;DHT22;10517;50.742;4.224;2023-08-07T03:00:28;10.70;99.90
20712;DHT22;10517;50.742;4.224;2023-08-07T03:02:54;10.80;99.90
20712;DHT22;10517;50.742;4.224;2023-08-07T03:05:20;10.80;99.90
20712;DHT22;10517;50.742;4.224;2023-08-07T03:07:46;10.90;99.90
20712;DHT22;10517;50.742;4.224;2023-08-07T03:10:11;11.00;99.90
20712;DHT22;10517;50.742;4.224;2023-08-07T03:12:37;11.10;99.90
20712;DHT22;10517;50.742;4.224;2023-08-07T03:15:05;11.20;99.90
20712;DHT22;10517;50.742;4.224;2023-08-07T03:17:31;11.30;99.90
20712;DHT22;10517;50.742;4.224;2023-08-07T03:19:57;11.30;99.90
20712;DHT22;10517;50.742;4.224;2023-08-07T03:22:23;11.40;99.90
20712;DHT22;10517;50.742;4.224;2023-08-07T03:24:49;11.50;99.90
20712;DHT22;10517;50.742;4.224;2023-08-07T03:27:15;11.50;99.90
20712;DHT22;10517;50.742;4.224;2023-08-07T03:29:41;11.50;99.90
20712;DHT22;10517;50.742;4.224;2023-08-07T03:32:08;11.60;99.90
20712;DHT22;10517;50.742;4.224;2023-08-07T03:34:34;11.60;99.90
20712;DHT22;10517;50.742;4.224;2023-08-07T03:36:59;11.60;99.90
20712;DHT22;10517;50.742;4.224;2023-08-07T03:39:25;11.60;99.90
20712;DHT22;10517;50.742;4.224;2023-08-07T03:41:51;11.50;99.90
20712;DHT22;10517;50.742;4.224;2023-08-07T03:44:17;11.50;99.90
20712;DHT22;10517;50.742;4.224;2023-08-07T03:46:43;11.40;99.90
20712;DHT22;10517;50.742;4.224;2023-08-07T03:49:08;11.40;99.90
20712;DHT22;10517;50.742;4.224;2023-08-07T03:51:34;11.40;99.90
20712;DHT22;10517;50.742;4.224;2023-08-07T03:54:00;11.30;99.90
20712;DHT22;10517;50.742;4.224;2023-08-07T03:56:26;11.30;99.90
20712;DHT22;10517;50.742;4.224;2023-08-07T03:58:51;11.30;99.90
20712;DHT22;10517;50.742;4.224;2023-08-07T04:01:17;11.20;99.90
20712;DHT22;10517;50.742;4.224;2023-08-07T04:03:48;11.20;99.90
20712;DHT22;10517;50.742;4.224;2023-08-07T04:06:14;11.10;99.90
20712;DHT22;10517;50.742;4.224;2023-08-07T04:08:42;11.10;99.90
20712;DHT22;10517;50.742;4.224;2023-08-07T04:11:10;11.20;99.90
20712;DHT22;10517;50.742;4.224;2023-08-07T04:13:36;11.10;99.90
20712;DHT22;10517;50.742;4.224;2023-08-07T04:16:02;11.10;99.90
20712;DHT22;10517;50.742;4.224;2023-08-07T04:18:30;11.00;99.90
20712;DHT22;10517;50.742;4.224;2023-08-07T04:20:56;11.00;99.90
20712;DHT22;10517;50.742;4.224;2023-08-07T04:23:23;11.10;99.90
20712;DHT22;10517;50.742;4.224;2023-08-07T04:25:49;11.00;99.90
20712;DHT22;10517;50.742;4.224;2023-08-07T04:28:16;11.10;99.90
20712;DHT22;10517;50.742;4.224;2023-08-07T04:30:43;11.10;99.90
20712;DHT22;10517;50.742;4.224;2023-08-07T04:33:09;11.10;99.90
20712;DHT22;10517;50.742;4.224;2023-08-07T04:35:35;11.10;99.90
20712;DHT22;10517;50.742;4.224;2023-08-07T04:38:02;11.10;99.90
20712;DHT22;10517;50.742;4.224;2023-08-07T04:40:28;11.20;99.90
20712;DHT22;10517;50.742;4.224;2023-08-07T04:42:56;11.20;99.90
20712;DHT22;10517;50.742;4.224;2023-08-07T04:45:21;11.20;99.90
20712;DHT22;10517;50.742;4.224;2023-08-07T04:47:47;11.20;99.90
20712;DHT22;10517;50.742;4.224;2023-08-07T04:50:13;11.20;99.90
20712;DHT22;10517;50.742;4.224;2023-08-07T04:52:39;11.20;99.90
20712;DHT22;10517;50.742;4.224;2023-08-07T04:55:05;11.20;99.90
20712;DHT22;10517;50.742;4.224;2023-08-07T04:57:31;11.20;99.90
20712;DHT22;10517;50.742;4.224;2023-08-07T04:59:56;11.30;99.90
20712;DHT22;10517;50.742;4.224;2023-08-07T05:02:22;11.40;99.90
20712;DHT22;10517;50.742;4.224;2023-08-07T05:04:48;11.40;99.90
20712;DHT22;10517;50.742;4.224;2023-08-07T05:07:14;11.40;99.90
20712;DHT22;10517;50.742;4.224;2023-08-07T05:09:40;11.50;99.90
20712;DHT22;10517;50.742;4.224;2023-08-07T05:12:06;11.50;99.90
20712;DHT22;10517;50.742;4.224;2023-08-07T05:14:32;11.50;99.90
20712;DHT22;10517;50.742;4.224;2023-08-07T05:16:58;11.50;99.90
20712;DHT22;10517;50.742;4.224;2023-08-07T05:19:25;11.50;99.90
20712;DHT22;10517;50.742;4.224;2023-08-07T05:21:51;11.60;99.90
20712;DHT22;10517;50.742;4.224;2023-08-07T05:24:17;11.60;99.90
20712;DHT22;10517;50.742;4.224;2023-08-07T05:26:44;11.60;99.90
20712;DHT22;10517;50.742;4.224;2023-08-07T05:29:09;11.70;99.90
20712;DHT22;10517;50.742;4.224;2023-08-07T05:31:35;11.70;99.90
20712;DHT22;10517;50.742;4.224;2023-08-07T05:34:01;11.80;99.90
20712;DHT22;10517;50.742;4.224;2023-08-07T05:36:27;11.90;99.90
20712;DHT22;10517;50.742;4.224;2023-08-07T05:38:55;11.90;99.90
20712;DHT22;10517;50.742;4.224;2023-08-07T05:41:21;12.00;99.90
20712;DHT22;10517;50.742;4.224;2023-08-07T05:43:46;12.10;99.90
20712;DHT22;10517;50.742;4.224;2023-08-07T05:46:12;12.10;99.90
20712;DHT22;10517;50.742;4.224;2023-08-07T05:48:38;12.10;99.90
20712;DHT22;10517;50.742;4.224;2023-08-07T05:51:04;12.20;99.90
20712;DHT22;10517;50.742;4.224;2023-08-07T05:53:29;12.20;99.90
20712;DHT22;10517;50.742;4.224;2023-08-07T05:55:56;12.30;99.90
20712;DHT22;10517;50.742;4.224;2023-08-07T05:58:22;12.30;99.90
20712;DHT22;10517;50.742;4.224;2023-08-07T06:00:47;12.40;99.90
20712;DHT22;10517;50.742;4.224;2023-08-07T06:03:13;12.40;99.90
20712;DHT22;10517;50.742;4.224;2023-08-07T06:05:39;12.50;99.90
20712;DHT22;10517;50.742;4.224;2023-08-07T06:08:05;12.60;99.90
20712;DHT22;10517;50.742;4.224;2023-08-07T06:10:31;12.70;99.90
20712;DHT22;10517;50.742;4.224;2023-08-07T06:12:57;12.70;99.90
20712;DHT22;10517;50.742;4.224;2023-08-07T06:15:23;12.70;99.90
20712;DHT22;10517;50.742;4.224;2023-08-07T06:17:48;12.80;99.90
20712;DHT22;10517;50.742;4.224;2023-08-07T06:20:16;12.80;99.90
20712;DHT22;10517;50.742;4.224;2023-08-07T06:22:42;12.90;99.90
20712;DHT22;10517;50.742;4.224;2023-08-07T06:25:08;12.90;99.90
20712;DHT22;10517;50.742;4.224;2023-08-07T06:27:34;13.00;99.90
20712;DHT22;10517;50.742;4.224;2023-08-07T06:30:00;13.00;99.90
20712;DHT22;10517;50.742;4.224;2023-08-07T06:32:26;13.10;99.90
20712;DHT22;10517;50.742;4.224;2023-08-07T06:34:52;13.20;99.90
20712;DHT22;10517;50.742;4.224;2023-08-07T06:37:19;13.20;99.90
20712;DHT22;10517;50.742;4.224;2023-08-07T06:39:44;13.20;99.90
20712;DHT22;10517;50.742;4.224;2023-08-07T06:42:12;13.30;99.90
20712;DHT22;10517;50.742;4.224;2023-08-07T06:44:38;13.40;99.90
20712;DHT22;10517;50.742;4.224;2023-08-07T06:47:04;13.50;99.90
20712;DHT22;10517;50.742;4.224;2023-08-07T06:49:29;13.50;99.90
20712;DHT22;10517;50.742;4.224;2023-08-07T06:51:57;13.50;99.90
20712;DHT22;10517;50.742;4.224;2023-08-07T06:54:23;13.50;99.90
20712;DHT22;10517;50.742;4.224;2023-08-07T06:56:49;13.70;99.90
20712;DHT22;10517;50.742;4.224;2023-08-07T06:59:15;13.80;99.90
20712;DHT22;10517;50.742;4.224;2023-08-07T07:01:41;13.90;99.90
20712;DHT22;10517;50.742;4.224;2023-08-07T07:04:06;14.00;99.90
20712;DHT22;10517;50.742;4.224;2023-08-07T07:06:33;14.00;99.90
20712;DHT22;10517;50.742;4.224;2023-08-07T07:08:59;14.10;99.90
20712;DHT22;10517;50.742;4.224;2023-08-07T07:11:25;14.10;99.90
20712;DHT22;10517;50.742;4.224;2023-08-07T07:13:51;14.20;99.90
20712;DHT22;10517;50.742;4.224;2023-08-07T07:16:18;14.30;99.90
20712;DHT22;10517;50.742;4.224;2023-08-07T07:18:44;14.30;99.90
20712;DHT22;10517;50.742;4.224;2023-08-07T07:21:10;14.40;99.90
20712;DHT22;10517;50.742;4.224;2023-08-07T07:23:36;14.40;99.90
20712;DHT22;10517;50.742;4.224;2023-08-07T07:26:01;14.50;99.90
20712;DHT22;10517;50.742;4.224;2023-08-07T07:28:27;14.60;99.90
20712;DHT22;10517;50.742;4.224;2023-08-07T07:30:53;14.70;99.90
20712;DHT22;10517;50.742;4.224;2023-08-07T07:33:19;14.70;99.90
20712;DHT22;10517;50.742;4.224;2023-08-07T07:35:45;14.80;99.90
20712;DHT22;10517;50.742;4.224;2023-08-07T07:38:10;14.90;99.90
20712;DHT22;10517;50.742;4.224;2023-08-07T07:40:37;15.10;99.90
20712;DHT22;10517;50.742;4.224;2023-08-07T07:43:03;15.10;99.90
20712;DHT22;10517;50.742;4.224;2023-08-07T07:45:29;15.00;99.90
20712;DHT22;10517;50.742;4.224;2023-08-07T07:47:55;15.10;99.90
20712;DHT22;10517;50.742;4.224;2023-08-07T07:50:21;15.20;99.90
20712;DHT22;10517;50.742;4.224;2023-08-07T07:52:47;15.20;99.90
20712;DHT22;10517;50.742;4.224;2023-08-07T07:55:13;15.30;99.90
20712;DHT22;10517;50.742;4.224;2023-08-07T07:57:39;15.40;99.90
20712;DHT22;10517;50.742;4.224;2023-08-07T08:00:06;15.40;99.90
20712;DHT22;10517;50.742;4.224;2023-08-07T08:02:36;15.50;99.90
20712;DHT22;10517;50.742;4.224;2023-08-07T08:05:02;15.60;99.90
20712;DHT22;10517;50.742;4.224;2023-08-07T08:07:28;15.60;99.90
20712;DHT22;10517;50.742;4.224;2023-08-07T08:09:54;15.80;99.90
20712;DHT22;10517;50.742;4.224;2023-08-07T08:12:21;15.80;99.90
20712;DHT22;10517;50.742;4.224;2023-08-07T08:14:47;15.70;99.90
20712;DHT22;10517;50.742;4.224;2023-08-07T08:17:13;15.70;99.90
20712;DHT22;10517;50.742;4.224;2023-08-07T08:19:39;15.80;99.90
20712;DHT22;10517;50.742;4.224;2023-08-07T08:22:05;15.90;99.90
20712;DHT22;10517;50.742;4.224;2023-08-07T08:24:31;15.90;99.90
20712;DHT22;10517;50.742;4.224;2023-08-07T08:26:57;15.90;99.90
20712;DHT22;10517;50.742;4.224;2023-08-07T08:29:23;16.10;99.90
20712;DHT22;10517;50.742;4.224;2023-08-07T08:31:49;16.20;99.90
20712;DHT22;10517;50.742;4.224;2023-08-07T08:34:16;16.30;99.90
20712;DHT22;10517;50.742;4.224;2023-08-07T08:36:42;16.40;99.90
20712;DHT22;10517;50.742;4.224;2023-08-07T08:39:08;16.60;99.90
20712;DHT22;10517;50.742;4.224;2023-08-07T08:41:34;16.40;99.90
20712;DHT22;10517;50.742;4.224;2023-08-07T08:44:01;16.30;99.90
20712;DHT22;10517;50.742;4.224;2023-08-07T08:46:29;16.50;99.90
20712;DHT22;10517;50.742;4.224;2023-08-07T08:48:57;16.70;99.90
20712;DHT22;10517;50.742;4.224;2023-08-07T08:51:25;16.80;99.90
20712;DHT22;10517;50.742;4.224;2023-08-07T08:53:54;16.90;99.90
20712;DHT22;10517;50.742;4.224;2023-08-07T08:56:22;17.20;99.90
20712;DHT22;10517;50.742;4.224;2023-08-07T08:58:51;17.30;99.90
20712;DHT22;10517;50.742;4.224;2023-08-07T09:01:18;17.20;99.90
20712;DHT22;10517;50.742;4.224;2023-08-07T09:03:47;17.30;99.90
20712;DHT22;10517;50.742;4.224;2023-08-07T09:06:13;17.60;99.90
20712;DHT22;10517;50.742;4.224;2023-08-07T09:08:43;17.60;99.90
20712;DHT22;10517;50.742;4.224;2023-08-07T09:11:10;17.50;99.90
20712;DHT22;10517;50.742;4.224;2023-08-07T09:13:38;17.50;99.90
20712;DHT22;10517;50.742;4.224;2023-08-07T09:16:05;17.50;99.90
20712;DHT22;10517;50.742;4.224;2023-08-07T09:18:33;17.60;99.90
20712;DHT22;10517;50.742;4.224;2023-08-07T09:21:00;17.50;99.90
20712;DHT22;10517;50.742;4.224;2023-08-07T09:23:26;17.50;99.90
20712;DHT22;10517;50.742;4.224;2023-08-07T09:26:02;17.40;99.90
20712;DHT22;10517;50.742;4.224;2023-08-07T09:28:29;17.40;99.90
20712;DHT22;10517;50.742;4.224;2023-08-07T09:30:56;17.50;99.90
20712;DHT22;10517;50.742;4.224;2023-08-07T09:33:40;17.80;99.90
20712;DHT22;10517;50.742;4.224;2023-08-07T09:36:05;18.00;99.90
20712;DHT22;10517;50.742;4.224;2023-08-07T09:38:32;18.00;99.90
20712;DHT22;10517;50.742;4.224;2023-08-07T09:40:59;17.80;99.90
20712;DHT22;10517;50.742;4.224;2023-08-07T09:43:25;17.60;99.90
20712;DHT22;10517;50.742;4.224;2023-08-07T09:45:51;17.60;99.90
20712;DHT22;10517;50.742;4.224;2023-08-07T09:48:24;17.50;99.90
20712;DHT22;10517;50.742;4.224;2023-08-07T09:50:54;17.30;99.90
20712;DHT22;10517;50.742;4.224;2023-08-07T09:53:27;17.40;99.90
20712;DHT22;10517;50.742;4.224;2023-08-07T09:55:56;17.60;99.90
20712;DHT22;10517;50.742;4.224;2023-08-07T09:58:22;17.60;99.90
20712;DHT22;10517;50.742;4.224;2023-08-07T10:00:49;17.80;99.90
20712;DHT22;10517;50.742;4.224;2023-08-07T10:03:15;17.90;99.90
20712;DHT22;10517;50.742;4.224;2023-08-07T10:05:43;18.10;99.90
20712;DHT22;10517;50.742;4.224;2023-08-07T10:08:10;18.40;99.90
20712;DHT22;10517;50.742;4.224;2023-08-07T10:10:37;18.40;99.90
20712;DHT22;10517;50.742;4.224;2023-08-07T10:13:03;18.40;99.90
20712;DHT22;10517;50.742;4.224;2023-08-07T10:15:31;18.20;99.90
20712;DHT22;10517;50.742;4.224;2023-08-07T10:17:57;18.30;99.90
20712;DHT22;10517;50.742;4.224;2023-08-07T10:20:26;18.40;99.90
20712;DHT22;10517;50.742;4.224;2023-08-07T10:22:53;18.70;99.90
20712;DHT22;10517;50.742;4.224;2023-08-07T10:25:22;18.90;99.90
20712;DHT22;10517;50.742;4.224;2023-08-07T10:27:50;19.00;99.90
20712;DHT22;10517;50.742;4.224;2023-08-07T10:30:18;19.20;99.90
20712;DHT22;10517;50.742;4.224;2023-08-07T10:32:45;19.20;99.90
20712;DHT22;10517;50.742;4.224;2023-08-07T10:35:25;19.40;99.90
20712;DHT22;10517;50.742;4.224;2023-08-07T10:37:52;19.40;99.90
20712;DHT22;10517;50.742;4.224;2023-08-07T10:40:19;19.50;99.90
20712;DHT22;10517;50.742;4.224;2023-08-07T10:42:59;19.50;99.90
20712;DHT22;10517;50.742;4.224;2023-08-07T10:45:26;19.20;99.90
20712;DHT22;10517;50.742;4.224;2023-08-07T10:48:01;19.30;99.90
20712;DHT22;10517;50.742;4.224;2023-08-07T10:50:29;19.40;99.90
20712;DHT22;10517;50.742;4.224;2023-08-07T10:52:55;19.40;99.90
20712;DHT22;10517;50.742;4.224;2023-08-07T10:55:21;19.30;99.90
20712;DHT22;10517;50.742;4.224;2023-08-07T10:57:48;19.40;99.90
20712;DHT22;10517;50.742;4.224;2023-08-07T11:00:14;19.50;99.90
20712;DHT22;10517;50.742;4.224;2023-08-07T11:02:42;19.50;99.90
20712;DHT22;10517;50.742;4.224;2023-08-07T11:05:08;19.50;99.90
20712;DHT22;10517;50.742;4.224;2023-08-07T11:07:34;19.50;99.90
20712;DHT22;10517;50.742;4.224;2023-08-07T11:10:05;19.70;99.90
20712;DHT22;10517;50.742;4.224;2023-08-07T11:12:31;19.90;99.90
20712;DHT22;10517;50.742;4.224;2023-08-07T11:14:57;19.90;99.90
20712;DHT22;10517;50.742;4.224;2023-08-07T11:17:26;19.90;99.90
20712;DHT22;10517;50.742;4.224;2023-08-07T11:19:53;19.60;99.90
20712;DHT22;10517;50.742;4.224;2023-08-07T11:22:20;19.70;99.90
20712;DHT22;10517;50.742;4.224;2023-08-07T11:24:50;20.10;99.90
20712;DHT22;10517;50.742;4.224;2023-08-07T11:27:16;20.10;99.90
20712;DHT22;10517;50.742;4.224;2023-08-07T11:29:47;20.10;99.90
20712;DHT22;10517;50.742;4.224;2023-08-07T11:32:14;20.10;99.90
20712;DHT22;10517;50.742;4.224;2023-08-07T11:34:39;20.40;99.90
20712;DHT22;10517;50.742;4.224;2023-08-07T11:37:05;20.70;99.90
20712;DHT22;10517;50.742;4.224;2023-08-07T11:39:31;20.80;99.90
20712;DHT22;10517;50.742;4.224;2023-08-07T11:41:57;20.70;99.90
20712;DHT22;10517;50.742;4.224;2023-08-07T11:44:23;20.30;99.90
20712;DHT22;10517;50.742;4.224;2023-08-07T11:46:50;20.50;99.90
20712;DHT22;10517;50.742;4.224;2023-08-07T11:49:17;20.60;99.90
20712;DHT22;10517;50.742;4.224;2023-08-07T11:51:43;20.80;99.90
20712;DHT22;10517;50.742;4.224;2023-08-07T11:54:14;20.90;99.90
20712;DHT22;10517;50.742;4.224;2023-08-07T11:56:41;20.80;99.90
20712;DHT22;10517;50.742;4.224;2023-08-07T11:59:08;20.80;99.90
20712;DHT22;10517;50.742;4.224;2023-08-07T12:01:38;20.50;99.90
20712;DHT22;10517;50.742;4.224;2023-08-07T12:06:31;20.10;99.90
20712;DHT22;10517;50.742;4.224;2023-08-07T12:08:57;20.30;99.90
20712;DHT22;10517;50.742;4.224;2023-08-07T12:11:23;20.50;99.90
20712;DHT22;10517;50.742;4.224;2023-08-07T12:13:50;20.70;99.90
20712;DHT22;10517;50.742;4.224;2023-08-07T12:16:16;20.80;99.90
20712;DHT22;10517;50.742;4.224;2023-08-07T12:18:50;20.90;99.90
20712;DHT22;10517;50.742;4.224;2023-08-07T12:21:21;20.80;99.90
20712;DHT22;10517;50.742;4.224;2023-08-07T12:23:50;20.90;99.90
20712;DHT22;10517;50.742;4.224;2023-08-07T12:26:16;20.70;99.90
20712;DHT22;10517;50.742;4.224;2023-08-07T12:28:42;20.50;99.90
20712;DHT22;10517;50.742;4.224;2023-08-07T12:31:08;20.30;99.90
20712;DHT22;10517;50.742;4.224;2023-08-07T12:33:34;20.30;99.90
20712;DHT22;10517;50.742;4.224;2023-08-07T12:36:01;20.60;99.90
20712;DHT22;10517;50.742;4.224;2023-08-07T12:38:27;20.70;99.90
20712;DHT22;10517;50.742;4.224;2023-08-07T12:40:53;20.50;99.90
20712;DHT22;10517;50.742;4.224;2023-08-07T12:43:19;20.50;99.90
20712;DHT22;10517;50.742;4.224;2023-08-07T12:45:45;20.40;99.90
20712;DHT22;10517;50.742;4.224;2023-08-07T12:48:10;20.30;99.90
20712;DHT22;10517;50.742;4.224;2023-08-07T12:50:36;20.60;99.90
20712;DHT22;10517;50.742;4.224;2023-08-07T12:53:03;20.90;99.90
20712;DHT22;10517;50.742;4.224;2023-08-07T12:55:29;21.00;99.90
20712;DHT22;10517;50.742;4.224;2023-08-07T12:57:55;20.80;99.90
20712;DHT22;10517;50.742;4.224;2023-08-07T13:00:22;20.80;99.90
20712;DHT22;10517;50.742;4.224;2023-08-07T13:02:49;20.90;99.90
20712;DHT22;10517;50.742;4.224;2023-08-07T13:05:16;20.70;99.90
20712;DHT22;10517;50.742;4.224;2023-08-07T13:07:46;20.40;99.90
20712;DHT22;10517;50.742;4.224;2023-08-07T13:10:14;20.30;99.90
20712;DHT22;10517;50.742;4.224;2023-08-07T13:12:41;20.90;99.90
20712;DHT22;10517;50.742;4.224;2023-08-07T13:15:09;21.50;99.90
20712;DHT22;10517;50.742;4.224;2023-08-07T13:17:39;22.50;99.90
20712;DHT22;10517;50.742;4.224;2023-08-07T13:20:06;23.20;99.90
20712;DHT22;10517;50.742;4.224;2023-08-07T13:22:38;24.30;99.90
20712;DHT22;10517;50.742;4.224;2023-08-07T13:25:04;24.90;99.90
20712;DHT22;10517;50.742;4.224;2023-08-07T13:27:32;24.10;99.90
20712;DHT22;10517;50.742;4.224;2023-08-07T13:29:58;24.20;99.90
20712;DHT22;10517;50.742;4.224;2023-08-07T13:32:25;23.50;99.90
20712;DHT22;10517;50.742;4.224;2023-08-07T13:34:51;22.60;99.90
20712;DHT22;10517;50.742;4.224;2023-08-07T13:37:17;21.80;99.90
20712;DHT22;10517;50.742;4.224;2023-08-07T13:39:42;21.20;99.90
20712;DHT22;10517;50.742;4.224;2023-08-07T13:42:08;21.50;99.90
20712;DHT22;10517;50.742;4.224;2023-08-07T13:44:39;23.00;99.90
20712;DHT22;10517;50.742;4.224;2023-08-07T13:47:05;24.70;99.90
20712;DHT22;10517;50.742;4.224;2023-08-07T13:49:32;25.70;99.90
20712;DHT22;10517;50.742;4.224;2023-08-07T13:51:58;26.80;99.90
20712;DHT22;10517;50.742;4.224;2023-08-07T13:54:24;27.30;99.90
20712;DHT22;10517;50.742;4.224;2023-08-07T13:56:49;27.00;99.90
20712;DHT22;10517;50.742;4.224;2023-08-07T13:59:16;27.50;99.90
20712;DHT22;10517;50.742;4.224;2023-08-07T14:01:42;26.60;99.90
20712;DHT22;10517;50.742;4.224;2023-08-07T14:04:07;25.20;99.90
20712;DHT22;10517;50.742;4.224;2023-08-07T14:06:33;25.00;99.90
20712;DHT22;10517;50.742;4.224;2023-08-07T14:08:59;25.10;99.90
20712;DHT22;10517;50.742;4.224;2023-08-07T14:11:25;25.40;99.90
20712;DHT22;10517;50.742;4.224;2023-08-07T14:13:56;25.20;99.90
20712;DHT22;10517;50.742;4.224;2023-08-07T14:16:23;25.10;99.90
20712;DHT22;10517;50.742;4.224;2023-08-07T14:18:49;26.10;99.90
20712;DHT22;10517;50.742;4.224;2023-08-07T14:21:14;26.20;99.90
20712;DHT22;10517;50.742;4.224;2023-08-07T14:23:40;24.80;99.90
20712;DHT22;10517;50.742;4.224;2023-08-07T14:26:07;24.20;99.90
20712;DHT22;10517;50.742;4.224;2023-08-07T14:28:33;24.00;99.90
20712;DHT22;10517;50.742;4.224;2023-08-07T14:30:59;23.70;99.90
20712;DHT22;10517;50.742;4.224;2023-08-07T14:33:26;24.50;99.90
20712;DHT22;10517;50.742;4.224;2023-08-07T14:35:52;26.10;99.90
20712;DHT22;10517;50.742;4.224;2023-08-07T14:38:18;27.60;99.90
20712;DHT22;10517;50.742;4.224;2023-08-07T14:40:44;27.40;99.90
20712;DHT22;10517;50.742;4.224;2023-08-07T14:43:10;26.50;99.90
20712;DHT22;10517;50.742;4.224;2023-08-07T14:45:36;26.70;99.90
20712;DHT22;10517;50.742;4.224;2023-08-07T14:48:03;27.10;99.90
20712;DHT22;10517;50.742;4.224;2023-08-07T14:50:29;26.30;99.90
20712;DHT22;10517;50.742;4.224;2023-08-07T14:52:58;24.80;99.90
20712;DHT22;10517;50.742;4.224;2023-08-07T14:55:23;24.00;99.90
20712;DHT22;10517;50.742;4.224;2023-08-07T14:57:49;23.50;99.90
20712;DHT22;10517;50.742;4.224;2023-08-07T15:00:15;22.80;99.90
20712;DHT22;10517;50.742;4.224;2023-08-07T15:02:42;22.40;99.90
20712;DHT22;10517;50.742;4.224;2023-08-07T15:05:08;22.70;99.90
20712;DHT22;10517;50.742;4.224;2023-08-07T15:07:34;23.50;99.90
20712;DHT22;10517;50.742;4.224;2023-08-07T15:10:00;24.10;99.90
20712;DHT22;10517;50.742;4.224;2023-08-07T15:12:25;25.10;99.90
20712;DHT22;10517;50.742;4.224;2023-08-07T15:14:51;25.00;99.90
20712;DHT22;10517;50.742;4.224;2023-08-07T15:17:17;23.90;99.90
20712;DHT22;10517;50.742;4.224;2023-08-07T15:19:43;23.40;99.90
20712;DHT22;10517;50.742;4.224;2023-08-07T15:22:08;23.30;99.90
20712;DHT22;10517;50.742;4.224;2023-08-07T15:24:34;23.60;99.90
20712;DHT22;10517;50.742;4.224;2023-08-07T15:27:00;23.80;99.90
20712;DHT22;10517;50.742;4.224;2023-08-07T15:29:26;24.60;99.90
20712;DHT22;10517;50.742;4.224;2023-08-07T15:31:51;26.40;99.90
20712;DHT22;10517;50.742;4.224;2023-08-07T15:34:17;27.40;99.90
20712;DHT22;10517;50.742;4.224;2023-08-07T15:36:43;27.90;99.90
20712;DHT22;10517;50.742;4.224;2023-08-07T15:39:09;28.00;99.90